Time;durP1;ratioP1;P1;durP2;ratioP2;P2;SDS_P1;SDS_P2;PMS_P1;PMS_P2;Temp;Humidity;BMP_temperature;BMP_pressure;BME280_temperature;BME280_humidity;BME280_pressure;Samples;Min_cycle;Max_cycle;Signal;HPM_P1;HPM_P2
2022/03/12 00:00:43;;;;;;;27.48;14.98;;;;;;;;;;4377728;32;20291;-79
2022/03/12 00:03:09;;;;;;;23.60;15.90;;;;;;;;;;4366879;32;20077;-79
2022/03/12 00:05:35;;;;;;;;;;;;;;;;;;4366171;32;20091;-78
2022/03/12 00:08:03;;;;;;;27.20;16.40;;;;;;;;;;4379628;32;19949;-77
2022/03/12 00:10:33;;;;;;;25.45;16.23;;;;;;;;;;4363994;32;20028;-78
2022/03/12 00:13:01;;;;;;;28.45;16.10;;;;;;;;;;4364387;32;20074;-78
2022/03/12 00:15:31;;;;;;;22.62;14.93;;;;;;;;;;4377560;32;20031;-77
2022/03/12 00:17:56;;;;;;;30.35;16.60;;;;;;;;;;4376633;32;20066;-77
2022/03/12 00:20:23;;;;;;;;;;;;;;;;;;4362171;32;20062;-79
2022/03/12 00:22:50;;;;;;;23.10;14.48;;;;;;;;;;4374735;32;19931;-78
2022/03/12 00:25:18;;;;;;;24.75;15.55;;;;;;;;;;4362055;32;20034;-78
2022/03/12 00:27:44;;;;;;;23.48;15.65;;;;;;;;;;4361696;32;20058;-77
2022/03/12 00:30:10;;;;;;;;;;;;;;;;;;4361932;32;20058;-77
2022/03/12 00:32:37;;;;;;;25.75;14.52;;;;;;;;;;4376815;32;19978;-78
2022/03/12 00:35:02;;;;;;;;;;;;;;;;;;4362168;32;20031;-77
2022/03/12 00:37:27;;;;;;;23.83;15.35;;;;;;;;;;4374462;32;19980;-79
2022/03/12 00:39:52;;;;;;;;;;;;;;;;;;4361893;32;20141;-78
2022/03/12 00:42:18;;;;;;;24.30;16.30;;;;;;;;;;4374673;32;19938;-77
2022/03/12 00:44:43;;;;;;;;;;;;;;;;;;4362252;32;20057;-77
2022/03/12 00:47:08;;;;;;;28.85;15.07;;;;;;;;;;4375531;32;19965;-78
2022/03/12 00:49:33;;;;;;;;;;;;;;;;;;4362221;32;20445;-78
2022/03/12 00:51:58;;;;;;;26.15;15.85;;;;;;;;;;4373668;32;20252;-78
2022/03/12 00:54:24;;;;;;;;;;;;;;;;;;4362236;32;20058;-79
2022/03/12 00:56:49;;;;;;;24.73;15.70;;;;;;;;;;4373906;32;19944;-79
2022/03/12 00:59:14;;;;;;;;;;;;;;;;;;4373856;32;20084;-78
2022/03/12 01:01:39;;;;;;;24.20;14.80;;;;;;;;;;4373908;32;19972;-78
2022/03/12 01:04:04;;;;;;;;;;;;;;;;;;4373887;32;20031;-77
2022/03/12 01:06:30;;;;;;;24.60;16.05;;;;;;;;;;4373662;32;20352;-78
2022/03/12 01:08:55;;;;;;;;;;;;;;;;;;4375383;32;20181;-79
2022/03/12 01:11:20;;;;;;;26.02;16.55;;;;;;;;;;4373686;32;20029;-78
2022/03/12 01:13:45;;;;;;;;;;;;;;;;;;4361883;32;20437;-77
2022/03/12 01:16:10;;;;;;;23.38;14.95;;;;;;;;;;4374275;32;19938;-77
2022/03/12 01:18:35;;;;;;;;;;;;;;;;;;4361203;32;20060;-77
2022/03/12 01:21:08;;;;;;;24.42;15.38;;;;;;;;;;4363318;32;19977;-77
2022/03/12 01:23:34;;;;;;;29.33;15.05;;;;;;;;;;4344419;33;20099;-77
2022/03/12 01:25:59;;;;;;;;;;;;;;;;;;4345524;33;20039;-78
2022/03/12 01:28:25;;;;;;;24.65;15.07;;;;;;;;;;4344229;33;20013;-77
2022/03/12 01:30:50;;;;;;;;;;;;;;;;;;4344311;33;20078;-77
2022/03/12 01:33:16;;;;;;;25.65;15.02;;;;;;;;;;4346427;33;19974;-77
2022/03/12 01:35:42;;;;;;;24.30;16.33;;;;;;;;;;4347582;32;20036;-76
2022/03/12 01:38:07;;;;;;;;;;;;;;;;;;4349050;33;20062;-78
2022/03/12 01:40:32;;;;;;;27.15;15.68;;;;;;;;;;4349908;33;19949;-77
2022/03/12 01:42:57;;;;;;;;;;;;;;;;;;4363498;32;20455;-78
2022/03/12 01:45:29;;;;;;;28.02;16.95;;;;;;;;;;4363790;32;19990;-77
2022/03/12 01:47:59;;;;;;;25.35;14.90;;;;;;;;;;4348730;33;20054;-78
2022/03/12 01:50:26;;;;;;;22.25;15.70;;;;;;;;;;4349253;33;20071;-78
2022/03/12 01:52:53;;;;;;;20.52;13.52;;;;;;;;;;4349659;33;20440;-78
2022/03/12 01:55:18;;;;;;;21.75;15.57;;;;;;;;;;4348808;33;20027;-78
2022/03/12 01:57:43;;;;;;;;;;;;;;;;;;4350269;33;20057;-78
2022/03/12 02:00:21;;;;;;;22.33;14.48;;;;;;;;;;4348615;33;19938;-78
2022/03/12 02:02:48;;;;;;;22.48;14.87;;;;;;;;;;4348638;33;20087;-77
2022/03/12 02:05:13;;;;;;;21.85;15.25;;;;;;;;;;4362231;32;20031;-78
2022/03/12 02:07:38;;;;;;;;;;;;;;;;;;4363117;32;20057;-78
2022/03/12 02:10:05;;;;;;;28.27;15.25;;;;;;;;;;4362442;32;19969;-78
2022/03/12 02:12:30;;;;;;;22.10;14.70;;;;;;;;;;4362966;32;20057;-78
2022/03/12 02:14:55;;;;;;;;;;;;;;;;;;4349192;33;20087;-78
2022/03/12 02:17:21;;;;;;;22.77;14.38;;;;;;;;;;4361985;32;20300;-78
2022/03/12 02:19:46;;;;;;;;;;;;;;;;;;4350491;32;20135;-78
2022/03/12 02:22:14;;;;;;;23.17;14.80;;;;;;;;;;4363014;32;19953;-78
2022/03/12 02:24:40;;;;;;;24.80;16.27;;;;;;;;;;4361830;32;20035;-78
2022/03/12 02:27:05;;;;;;;;;;;;;;;;;;4361899;32;20425;-77
2022/03/12 02:29:31;;;;;;;25.95;15.23;;;;;;;;;;4362921;32;19942;-77
2022/03/12 02:31:57;;;;;;;;;;;;;;;;;;4348549;33;20028;-78
2022/03/12 02:34:31;;;;;;;24.10;15.80;;;;;;;;;;4363232;32;19977;-77
2022/03/12 02:36:57;;;;;;;22.58;14.63;;;;;;;;;;4348676;33;20036;-78
2022/03/12 02:39:22;;;;;;;;;;;;;;;;;;4362308;32;20121;-78
2022/03/12 02:41:51;;;;;;;21.50;15.35;;;;;;;;;;4362575;32;19934;-78
2022/03/12 02:44:18;;;;;;;26.55;16.25;;;;;;;;;;4347306;33;20031;-78
2022/03/12 02:47:04;;;;;;;30.05;15.35;;;;;;;;;;4362778;32;20039;-77
2022/03/12 02:49:30;;;;;;;22.90;16.03;;;;;;;;;;4362013;33;20031;-78
2022/03/12 02:51:55;;;;;;;;;;;;;;;;;;4361957;32;20146;-78
2022/03/12 02:54:20;;;;;;;24.60;14.68;;;;;;;;;;4362133;32;20341;-79
2022/03/12 02:56:45;;;;;;;;;;;;;;;;;;4362203;32;20031;-78
2022/03/12 02:59:13;;;;;;;26.87;15.55;;;;;;;;;;4348426;33;20350;-78
2022/03/12 03:01:38;;;;;;;20.27;14.05;;;;;;;;;;4361363;33;20077;-78
2022/03/12 03:04:03;;;;;;;20.00;13.37;;;;;;;;;;4347879;33;20031;-77
2022/03/12 03:06:29;;;;;;;;;;;;;;;;;;4348256;33;20123;-77
2022/03/12 03:08:54;;;;;;;22.17;14.23;;;;;;;;;;4348788;33;19970;-77
2022/03/12 03:11:19;;;;;;;;;;;;;;;;;;4349318;33;20053;-77
2022/03/12 03:13:45;;;;;;;24.45;14.32;;;;;;;;;;4348150;33;19974;-77
2022/03/12 03:16:24;;;;;;;19.33;13.93;;;;;;;;;;4361302;32;20057;-77
2022/03/12 03:18:53;;;;;;;23.92;15.25;;;;;;;;;;4347778;33;20019;-77
2022/03/12 03:21:19;;;;;;;24.87;15.07;;;;;;;;;;4359916;32;20062;-78
2022/03/12 03:23:46;;;;;;;19.95;14.63;;;;;;;;;;4361429;32;20088;-78
2022/03/12 03:26:13;;;;;;;22.50;15.20;;;;;;;;;;4360188;32;20065;-78
2022/03/12 03:28:39;;;;;;;22.80;14.25;;;;;;;;;;4361504;32;20050;-78
2022/03/12 03:31:04;;;;;;;;;;;;;;;;;;4360066;33;20054;-78
2022/03/12 03:33:29;;;;;;;21.50;13.43;;;;;;;;;;4361052;32;19953;-78
2022/03/12 03:35:54;;;;;;;;;;;;;;;;;;4347827;33;20070;-77
2022/03/12 03:38:19;;;;;;;20.27;14.35;;;;;;;;;;4347923;33;19972;-78
2022/03/12 03:40:45;;;;;;;18.73;14.38;;;;;;;;;;4361767;32;20024;-77
2022/03/12 03:43:13;;;;;;;;;;;;;;;;;;4360203;32;20057;-77
2022/03/12 03:45:38;;;;;;;;;;;;;;;;;;4362234;32;19942;-77
2022/03/12 03:48:03;;;;;;;16.85;12.60;;;;;;;;;;4347733;33;19990;-77
2022/03/12 03:50:28;;;;;;;;;;;;;;;;;;4360124;32;20035;-78
2022/03/12 03:52:58;;;;;;;20.80;13.05;;;;;;;;;;4347842;33;19946;-77
2022/03/12 03:55:25;;;;;;;18.30;12.90;;;;;;;;;;4346985;33;20123;-77
2022/03/12 03:57:52;;;;;;;19.87;13.23;;;;;;;;;;4346633;33;20027;-77
2022/03/12 04:00:21;;;;;;;20.10;13.25;;;;;;;;;;4347000;33;20425;-77
2022/03/12 04:02:47;;;;;;;16.90;12.50;;;;;;;;;;4347088;33;20053;-77
2022/03/12 04:05:12;;;;;;;;;;;;;;;;;;4348098;33;20035;-78
2022/03/12 04:07:37;;;;;;;20.60;12.93;;;;;;;;;;4347012;33;19973;-78
2022/03/12 04:10:02;;;;;;;;;;;;;;;;;;4350699;32;20357;-77
2022/03/12 04:12:28;;;;;;;18.70;13.70;;;;;;;;;;4364487;32;19950;-78
2022/03/12 04:14:53;;;;;;;;;;;;;;;;;;4362867;32;20050;-79
2022/03/12 04:17:18;;;;;;;16.65;12.10;;;;;;;;;;4365993;32;19939;-77
2022/03/12 04:19:43;;;;;;;;;;;;;;;;;;4355328;33;20136;-78
2022/03/12 04:22:09;;;;;;;18.92;11.18;;;;;;;;;;4367312;32;19943;-77
2022/03/12 04:24:35;;;;;;;20.35;11.75;;;;;;;;;;4365529;33;20122;-77
2022/03/12 04:27:02;;;;;;;;;;;;;;;;;;4349995;33;20070;-76
2022/03/12 04:29:27;;;;;;;14.98;11.10;;;;;;;;;;4363056;32;19938;-77
2022/03/12 04:31:52;;;;;;;;;;;;;;;;;;4352645;33;20024;-77
2022/03/12 04:34:19;;;;;;;17.35;11.23;;;;;;;;;;4361724;33;19993;-77
2022/03/12 04:36:44;;;;;;;16.17;11.25;;;;;;;;;;4362310;32;20055;-78
2022/03/12 04:39:09;;;;;;;;;;;;;;;;;;4361657;32;20039;-78
2022/03/12 04:41:35;;;;;;;16.15;10.15;;;;;;;;;;4361717;32;19998;-78
2022/03/12 04:44:00;;;;;;;;;;;;;;;;;;4359834;32;20039;-77
2022/03/12 04:46:25;;;;;;;14.55;9.55;;;;;;;;;;4359720;32;20391;-78
2022/03/12 04:48:50;;;;;;;;;;;;;;;;;;4359294;32;20077;-78
2022/03/12 04:51:16;;;;;;;13.30;9.15;;;;;;;;;;4359511;32;20002;-78
2022/03/12 04:53:41;;;;;;;;;;;;;;;;;;4360603;32;20178;-78
2022/03/12 04:56:09;;;;;;;12.75;9.30;;;;;;;;;;4360254;32;19942;-77
2022/03/12 04:58:34;;;;;;;11.70;6.82;;;;;;;;;;4361088;32;20155;-79
2022/03/12 05:00:59;;;;;;;;;;;;;;;;;;4359417;33;20032;-78
2022/03/12 05:03:25;;;;;;;7.32;5.12;;;;;;;;;;4358587;33;20257;-78
2022/03/12 05:05:51;;;;;;;8.43;5.12;;;;;;;;;;4358667;32;20193;-77
2022/03/12 05:08:19;;;;;;;7.45;5.43;;;;;;;;;;4361449;33;20446;-77
2022/03/12 05:10:49;;;;;;;8.35;5.85;;;;;;;;;;4361721;33;20071;-77
2022/03/12 05:13:16;;;;;;;8.40;5.87;;;;;;;;;;4362936;32;20187;-77
2022/03/12 05:15:42;;;;;;;8.32;5.78;;;;;;;;;;4363617;32;20098;-77
2022/03/12 05:18:07;;;;;;;;;;;;;;;;;;4363860;32;20057;-77
2022/03/12 05:20:34;;;;;;;8.98;5.32;;;;;;;;;;4361548;33;20329;-77
2022/03/12 05:22:59;;;;;;;7.03;5.32;;;;;;;;;;4361864;32;20070;-78
2022/03/12 05:25:25;;;;;;;;;;;;;;;;;;4364970;32;20424;-78
2022/03/12 05:27:51;;;;;;;7.53;5.87;;;;;;;;;;4362716;32;20365;-78
2022/03/12 05:30:16;;;;;;;;;;;;;;;;;;4374349;32;20050;-77
2022/03/12 05:32:41;;;;;;;8.25;6.22;;;;;;;;;;4364121;32;19997;-78
2022/03/12 05:35:07;;;;;;;;;;;;;;;;;;4361595;33;20031;-78
2022/03/12 05:37:32;;;;;;;8.15;6.10;;;;;;;;;;4363125;32;19938;-76
2022/03/12 05:39:57;;;;;;;;;;;;;;;;;;4363084;32;20047;-79
2022/03/12 05:42:23;;;;;;;9.23;6.53;;;;;;;;;;4363160;33;19938;-78
2022/03/12 05:44:50;;;;;;;;;;;;;;;;;;4361564;33;20069;-79
2022/03/12 05:47:17;;;;;;;8.43;6.97;;;;;;;;;;4362497;32;19982;-78
2022/03/12 05:49:42;;;;;;;9.68;6.65;;;;;;;;;;4373617;32;20128;-77
2022/03/12 05:52:09;;;;;;;;;;;;;;;;;;4361452;33;20445;-77
2022/03/12 05:54:34;;;;;;;8.68;6.37;;;;;;;;;;4361272;33;19988;-79
2022/03/12 05:57:00;;;;;;;;;;;;;;;;;;4373806;32;20418;-77
2022/03/12 05:59:25;;;;;;;8.60;6.68;;;;;;;;;;4361437;32;19939;-79
2022/03/12 06:01:50;;;;;;;;;;;;;;;;;;4361419;33;20053;-77
2022/03/12 06:04:25;;;;;;;10.50;6.78;;;;;;;;;;4360865;33;20000;-77
2022/03/12 06:06:51;;;;;;;9.40;6.78;;;;;;;;;;4360883;33;20447;-77
2022/03/12 06:09:16;;;;;;;;;;;;;;;;;;4361528;32;20027;-77
2022/03/12 06:11:42;;;;;;;8.25;6.57;;;;;;;;;;4360950;32;19978;-76
2022/03/12 06:14:15;;;;;;;;;;;;;;;;;;4362579;32;20119;-79
2022/03/12 06:16:42;;;;;;;9.07;6.80;;;;;;;;;;4360836;33;19981;-78
2022/03/12 06:19:09;;;;;;;9.32;6.15;;;;;;;;;;4373128;32;20050;-78
2022/03/12 06:21:34;;;;;;;7.90;6.53;;;;;;;;;;4361298;32;20394;-78
2022/03/12 06:24:00;;;;;;;;;;;;;;;;;;4361413;32;20085;-78
2022/03/12 06:26:27;;;;;;;10.57;6.53;;;;;;;;;;4361104;32;19934;-78
2022/03/12 06:28:53;;;;;;;12.43;7.60;;;;;;;;;;4360725;33;20020;-78
2022/03/12 06:31:18;;;;;;;9.30;6.37;;;;;;;;;;4362855;32;20089;-79
2022/03/12 06:33:44;;;;;;;;;;;;;;;;;;4361420;32;20031;-79
2022/03/12 06:36:09;;;;;;;10.88;6.70;;;;;;;;;;4360705;32;19960;-79
2022/03/12 06:38:35;;;;;;;;;;;;;;;;;;4360559;32;20075;-79
2022/03/12 06:41:01;;;;;;;8.82;6.60;;;;;;;;;;4360512;33;20314;-79
2022/03/12 06:43:28;;;;;;;;;;;;;;;;;;4362631;32;20070;-78
2022/03/12 06:45:53;;;;;;;9.60;7.07;;;;;;;;;;4360307;33;19969;-77
2022/03/12 06:48:18;;;;;;;;;;;;;;;;;;4361042;32;20367;-77
2022/03/12 06:50:44;;;;;;;10.73;7.47;;;;;;;;;;4361336;33;19943;-77
2022/03/12 06:53:09;;;;;;;;;;;;;;;;;;4362827;32;20027;-76
2022/03/12 06:55:34;;;;;;;11.12;7.50;;;;;;;;;;4360762;32;20339;-77
2022/03/12 06:58:00;;;;;;;;;;;;;;;;;;4360581;32;20077;-77
2022/03/12 07:00:26;;;;;;;11.45;7.62;;;;;;;;;;4361751;32;19953;-78
2022/03/12 07:02:54;;;;;;;10.93;8.00;;;;;;;;;;4360085;32;20053;-77
2022/03/12 07:05:20;;;;;;;12.27;7.40;;;;;;;;;;4349344;33;20039;-77
2022/03/12 07:07:45;;;;;;;;;;;;;;;;;;4360262;33;20129;-77
2022/03/12 07:10:10;;;;;;;11.45;7.65;;;;;;;;;;4361079;32;19952;-77
2022/03/12 07:12:35;;;;;;;;;;;;;;;;;;4348383;33;20085;-77
2022/03/12 07:15:01;;;;;;;10.35;8.10;;;;;;;;;;4360487;32;19942;-77
2022/03/12 07:17:26;;;;;;;;;;;;;;;;;;4348887;33;20185;-77
2022/03/12 07:19:51;;;;;;;14.27;7.72;;;;;;;;;;4360009;33;19939;-78
2022/03/12 07:22:17;;;;;;;;;;;;;;;;;;4348353;33;20031;-78
2022/03/12 07:24:43;;;;;;;10.20;7.57;;;;;;;;;;4361028;32;19938;-77
2022/03/12 07:27:08;;;;;;;10.65;7.28;;;;;;;;;;4347575;33;20102;-77
2022/03/12 07:29:34;;;;;;;;;;;;;;;;;;4335046;33;20360;-78
2022/03/12 07:31:59;;;;;;;10.15;6.68;;;;;;;;;;4361171;32;20346;-77
2022/03/12 07:34:24;;;;;;;;;;;;;;;;;;4368521;32;20163;-77
2022/03/12 07:36:50;;;;;;;9.85;6.75;;;;;;;;;;4376226;32;19930;-77
2022/03/12 07:39:15;;;;;;;;;;;;;;;;;;4362252;32;20116;-78
2022/03/12 07:41:40;;;;;;;9.50;6.45;;;;;;;;;;4376761;32;19973;-78
2022/03/12 07:44:05;;;;;;;;;;;;;;;;;;4375988;32;20034;-78
2022/03/12 07:46:33;;;;;;;10.38;6.43;;;;;;;;;;4375592;32;19949;-78
2022/03/12 07:48:59;;;;;;;10.77;6.15;;;;;;;;;;4351800;32;20044;-79
2022/03/12 07:51:24;;;;;;;9.02;6.55;;;;;;;;;;4361196;32;20036;-78
2022/03/12 07:53:49;;;;;;;;;;;;;;;;;;4347563;33;20109;-79
2022/03/12 07:56:16;;;;;;;11.52;7.40;;;;;;;;;;4359565;33;20338;-78
2022/03/12 07:58:41;;;;;;;10.02;6.72;;;;;;;;;;4347613;33;20136;-77
2022/03/12 08:01:08;;;;;;;;;;;;;;;;;;4347717;33;20027;-77
2022/03/12 08:03:35;;;;;;;12.40;7.03;;;;;;;;;;4360574;32;19972;-74
2022/03/12 08:06:01;;;;;;;9.98;6.37;;;;;;;;;;4346939;33;20118;-74
2022/03/12 08:08:26;;;;;;;;;;;;;;;;;;4359249;33;20027;-75
2022/03/12 08:13:36;;;;;;;10.20;6.35;;;;;;;;;;4361002;32;20080;-76
2022/03/12 08:16:01;;;;;;;;;;;;;;;;;;4359515;32;20027;-75
2022/03/12 08:18:27;;;;;;;8.23;6.70;;;;;;;;;;4359063;33;19980;-76
2022/03/12 08:20:53;;;;;;;8.48;5.55;;;;;;;;;;4347257;33;20124;-76
2022/03/12 08:23:18;;;;;;;;;;;;;;;;;;4346624;33;20410;-76
2022/03/12 08:25:44;;;;;;;8.85;5.57;;;;;;;;;;4362882;32;19960;-75
2022/03/12 08:28:09;;;;;;;;;;;;;;;;;;4375284;32;20042;-75
2022/03/12 08:30:35;;;;;;;9.23;6.05;;;;;;;;;;4361484;32;19938;-73
2022/03/12 08:33:00;;;;;;;10.13;6.28;;;;;;;;;;4361920;32;20031;-75
2022/03/12 08:35:26;;;;;;;;;;;;;;;;;;4375569;32;20053;-76
2022/03/12 08:37:51;;;;;;;9.82;5.80;;;;;;;;;;4375422;32;19972;-75
2022/03/12 08:40:16;;;;;;;;;;;;;;;;;;4361494;32;20031;-73
2022/03/12 08:42:41;;;;;;;9.55;5.80;;;;;;;;;;4362290;32;19942;-74
2022/03/12 08:45:08;;;;;;;;;;;;;;;;;;4360802;32;20073;-76
2022/03/12 08:47:33;;;;;;;12.00;5.70;;;;;;;;;;4361042;32;20263;-75
2022/03/12 08:49:58;;;;;;;;;;;;;;;;;;4361835;32;20054;-74
2022/03/12 08:52:23;;;;;;;9.30;5.87;;;;;;;;;;4360766;32;19942;-74
2022/03/12 08:54:48;;;;;;;;;;;;;;;;;;4351714;32;20065;-75
2022/03/12 08:57:13;;;;;;;8.00;4.93;;;;;;;;;;4368764;32;19953;-75
2022/03/12 08:59:39;;;;;;;;;;;;;;;;;;4347967;33;20058;-74
2022/03/12 09:02:04;;;;;;;9.25;5.68;;;;;;;;;;4360412;33;19943;-74
2022/03/12 09:04:29;;;;;;;;;;;;;;;;;;4372918;32;20031;-74
2022/03/12 09:06:55;;;;;;;10.63;5.10;;;;;;;;;;4371509;32;20328;-75
2022/03/12 09:09:20;;;;;;;;;;;;;;;;;;4362197;32;20040;-75
2022/03/12 09:11:45;;;;;;;10.38;5.07;;;;;;;;;;4360976;32;19942;-75
2022/03/12 09:14:10;;;;;;;;;;;;;;;;;;4361700;32;20123;-76
2022/03/12 09:16:36;;;;;;;8.55;5.28;;;;;;;;;;4360947;32;20267;-76
2022/03/12 09:19:01;;;;;;;;;;;;;;;;;;4362958;32;20332;-76
2022/03/12 09:21:27;;;;;;;12.70;4.93;;;;;;;;;;4361009;32;20293;-75
2022/03/12 09:23:52;;;;;;;;;;;;;;;;;;4375295;32;20023;-74
2022/03/12 09:26:18;;;;;;;11.18;5.22;;;;;;;;;;4360618;32;20304;-75
2022/03/12 09:28:44;;;;;;;;;;;;;;;;;;4361896;32;20027;-76
2022/03/12 09:31:09;;;;;;;11.43;5.28;;;;;;;;;;4360917;32;19973;-75
2022/03/12 09:33:35;;;;;;;;;;;;;;;;;;4375577;32;20116;-75
2022/03/12 09:36:01;;;;;;;10.65;5.15;;;;;;;;;;4362196;32;19934;-75
2022/03/12 09:38:27;;;;;;;10.48;4.87;;;;;;;;;;4358572;32;20065;-75
2022/03/12 09:40:52;;;;;;;;;;;;;;;;;;4359860;33;20147;-76
2022/03/12 09:43:17;;;;;;;11.55;5.25;;;;;;;;;;4360196;33;19954;-75
2022/03/12 09:45:43;;;;;;;;;;;;;;;;;;4361129;33;20210;-75
2022/03/12 09:48:08;;;;;;;11.70;6.10;;;;;;;;;;4358357;33;19983;-75
2022/03/12 09:50:33;;;;;;;;;;;;;;;;;;4359114;33;20054;-75
2022/03/12 09:52:58;;;;;;;12.68;5.78;;;;;;;;;;4358536;32;19953;-75
2022/03/12 09:55:24;;;;;;;;;;;;;;;;;;4353079;33;20556;-76
2022/03/12 09:57:49;;;;;;;10.70;5.40;;;;;;;;;;4348431;33;20267;-75
2022/03/12 10:00:14;;;;;;;;;;;;;;;;;;4348948;33;20081;-76
2022/03/12 10:02:40;;;;;;;12.43;5.93;;;;;;;;;;4348105;33;19992;-75
2022/03/12 10:05:05;;;;;;;;;;;;;;;;;;4348474;33;20139;-75
2022/03/12 10:07:30;;;;;;;9.40;5.28;;;;;;;;;;4361850;32;19942;-75
2022/03/12 10:09:56;;;;;;;;;;;;;;;;;;4344567;33;20097;-75
2022/03/12 10:12:21;;;;;;;7.78;4.30;;;;;;;;;;4361743;32;19935;-75
2022/03/12 10:14:49;;;;;;;;;;;;;;;;;;4361214;32;20371;-73
2022/03/12 10:17:16;;;;;;;10.90;5.43;;;;;;;;;;4362368;32;19969;-75
2022/03/12 10:19:42;;;;;;;13.65;6.18;;;;;;;;;;4361827;32;20065;-75
2022/03/12 10:22:09;;;;;;;7.80;5.65;;;;;;;;;;4363034;32;20031;-75
2022/03/12 10:24:35;;;;;;;13.02;5.47;;;;;;;;;;4358035;33;20031;-75
2022/03/12 10:27:00;;;;;;;13.88;5.22;;;;;;;;;;4360662;32;20066;-74
2022/03/12 10:29:26;;;;;;;7.12;5.00;;;;;;;;;;4349136;32;20039;-76
2022/03/12 10:31:51;;;;;;;;;;;;;;;;;;4348736;33;20442;-76
2022/03/12 10:34:22;;;;;;;8.10;4.57;;;;;;;;;;4348007;33;19942;-74
2022/03/12 10:36:48;;;;;;;12.00;5.85;;;;;;;;;;4347785;33;20234;-76
2022/03/12 10:39:13;;;;;;;11.35;5.55;;;;;;;;;;4361929;32;20066;-74
2022/03/12 10:41:38;;;;;;;;;;;;;;;;;;4349448;32;20461;-74
2022/03/12 10:44:04;;;;;;;7.60;4.15;;;;;;;;;;4349746;33;19931;-76
2022/03/12 10:46:29;;;;;;;;;;;;;;;;;;4359283;33;20057;-75
2022/03/12 10:48:58;;;;;;;8.48;4.80;;;;;;;;;;4360003;33;20004;-76
2022/03/12 10:51:34;;;;;;;8.25;3.80;;;;;;;;;;4349496;32;20055;-77
2022/03/12 10:54:05;;;;;;;15.02;4.35;;;;;;;;;;4355196;32;20466;-75
2022/03/12 10:56:58;;;;;;;8.75;4.65;;;;;;;;;;4359544;33;20077;-77
2022/03/12 10:59:24;;;;;;;8.40;4.50;;;;;;;;;;4352954;33;20036;-76
2022/03/12 11:01:51;;;;;;;8.90;4.22;;;;;;;;;;4359037;33;20054;-75
2022/03/12 11:04:18;;;;;;;9.77;4.32;;;;;;;;;;4358314;32;20089;-73
2022/03/12 11:06:43;;;;;;;10.40;4.45;;;;;;;;;;4344451;33;20023;-75
2022/03/12 11:09:12;;;;;;;7.97;4.55;;;;;;;;;;4357103;33;20036;-76
2022/03/12 11:11:39;;;;;;;7.93;4.57;;;;;;;;;;4360392;32;20031;-76
2022/03/12 11:14:07;;;;;;;9.35;4.45;;;;;;;;;;4359798;32;20130;-75
2022/03/12 11:16:33;;;;;;;8.48;4.10;;;;;;;;;;4358446;33;20421;-76
2022/03/12 11:19:10;;;;;;;6.72;4.57;;;;;;;;;;4342510;33;20054;-75
2022/03/12 11:21:44;;;;;;;10.10;5.10;;;;;;;;;;4347579;33;20202;-75
2022/03/12 11:24:15;;;;;;;9.73;4.97;;;;;;;;;;4346661;33;20015;-76
2022/03/12 11:26:43;;;;;;;10.18;4.68;;;;;;;;;;4361026;32;20040;-75
2022/03/12 11:29:10;;;;;;;12.13;6.37;;;;;;;;;;4359544;32;20035;-77
2022/03/12 11:31:42;;;;;;;9.60;6.70;;;;;;;;;;4361084;32;20058;-74
2022/03/12 11:34:22;;;;;;;8.43;6.47;;;;;;;;;;4347819;33;20121;-75
2022/03/12 11:37:05;;;;;;;10.10;6.35;;;;;;;;;;4362580;32;20096;-76
2022/03/12 11:39:31;;;;;;;7.47;4.80;;;;;;;;;;4357435;32;20044;-76
2022/03/12 11:42:01;;;;;;;9.45;4.87;;;;;;;;;;4356527;33;20023;-76
2022/03/12 11:44:27;;;;;;;9.20;5.70;;;;;;;;;;4360192;32;20373;-76
2022/03/12 11:46:52;;;;;;;11.85;7.10;;;;;;;;;;4360757;32;20031;-75
2022/03/12 11:49:18;;;;;;;8.85;6.12;;;;;;;;;;4359292;32;20428;-75
2022/03/12 11:51:44;;;;;;;11.60;5.90;;;;;;;;;;4355659;32;20035;-76
2022/03/12 11:54:09;;;;;;;7.50;5.60;;;;;;;;;;4347461;33;20042;-76
2022/03/12 11:56:34;;;;;;;10.80;6.65;;;;;;;;;;4346512;33;20129;-75
2022/03/12 11:59:00;;;;;;;7.62;5.95;;;;;;;;;;4354350;33;20028;-75
2022/03/12 12:01:25;;;;;;;9.87;6.57;;;;;;;;;;4346540;32;20066;-76
2022/03/12 12:03:50;;;;;;;;;;;;;;;;;;4360369;32;20537;-76
2022/03/12 12:06:15;;;;;;;12.90;6.97;;;;;;;;;;4350422;33;20206;-76
2022/03/12 12:08:41;;;;;;;;;;;;;;;;;;4360525;32;20188;-76
2022/03/12 12:11:07;;;;;;;10.15;6.22;;;;;;;;;;4360131;32;19947;-75
2022/03/12 12:13:33;;;;;;;10.85;6.53;;;;;;;;;;4359191;32;20106;-76
2022/03/12 12:15:58;;;;;;;7.30;5.22;;;;;;;;;;4359671;32;20043;-75
2022/03/12 12:18:23;;;;;;;12.27;5.68;;;;;;;;;;4357517;33;20034;-76
2022/03/12 12:20:49;;;;;;;8.73;6.15;;;;;;;;;;4358634;32;20377;-74
2022/03/12 12:23:14;;;;;;;;;;;;;;;;;;4360735;32;20142;-76
2022/03/12 12:25:39;;;;;;;6.45;4.97;;;;;;;;;;4353051;32;19950;-76
2022/03/12 12:28:18;;;;;;;12.60;4.55;;;;;;;;;;4355568;33;20034;-77
2022/03/12 12:30:45;;;;;;;6.37;4.53;;;;;;;;;;4345787;33;20042;-77
2022/03/12 12:33:18;;;;;;;8.23;4.90;;;;;;;;;;4350316;33;20034;-76
2022/03/12 12:35:47;;;;;;;11.07;4.62;;;;;;;;;;4345382;32;20077;-74
2022/03/12 12:38:14;;;;;;;8.77;4.60;;;;;;;;;;4359758;32;20416;-75
2022/03/12 12:40:43;;;;;;;8.63;5.03;;;;;;;;;;4346741;33;20077;-75
2022/03/12 12:43:12;;;;;;;9.10;4.78;;;;;;;;;;4359554;32;20031;-76
2022/03/12 12:45:57;;;;;;;7.32;4.72;;;;;;;;;;4358344;33;20050;-76
2022/03/12 12:48:28;;;;;;;6.20;4.75;;;;;;;;;;4359867;32;20078;-75
2022/03/12 12:51:17;;;;;;;6.30;4.18;;;;;;;;;;4359758;32;20039;-77
2022/03/12 12:53:43;;;;;;;5.57;4.57;;;;;;;;;;4358144;33;20454;-76
2022/03/12 12:56:21;;;;;;;7.65;4.70;;;;;;;;;;4358371;32;20023;-75
2022/03/12 12:58:52;;;;;;;7.75;4.20;;;;;;;;;;4358139;32;20027;-75
2022/03/12 13:01:26;;;;;;;6.15;3.85;;;;;;;;;;4358094;33;20031;-77
2022/03/12 13:03:52;;;;;;;9.50;3.92;;;;;;;;;;4340717;33;20027;-75
2022/03/12 13:06:36;;;;;;;7.72;4.07;;;;;;;;;;4359922;33;20062;-75
2022/03/12 13:09:08;;;;;;;7.12;4.32;;;;;;;;;;4345180;33;20028;-75
2022/03/12 13:11:34;;;;;;;8.55;4.75;;;;;;;;;;4346666;33;20087;-75
2022/03/12 13:14:00;;;;;;;6.65;3.90;;;;;;;;;;4358253;33;20023;-75
2022/03/12 13:16:26;;;;;;;8.98;3.60;;;;;;;;;;4359250;33;20142;-76
2022/03/12 13:18:51;;;;;;;7.68;3.92;;;;;;;;;;4358791;33;20035;-75
2022/03/12 13:21:27;;;;;;;7.85;3.47;;;;;;;;;;4346687;33;20035;-75
2022/03/12 13:23:53;;;;;;;6.05;3.35;;;;;;;;;;4358909;33;20074;-76
2022/03/12 13:26:18;;;;;;;7.78;3.35;;;;;;;;;;4344988;33;20031;-76
2022/03/12 13:28:44;;;;;;;6.05;3.45;;;;;;;;;;4347054;33;20027;-74
2022/03/12 13:31:28;;;;;;;6.15;4.32;;;;;;;;;;4345359;32;20047;-74
2022/03/12 13:33:56;;;;;;;8.52;3.42;;;;;;;;;;4361371;32;20031;-75
2022/03/12 13:36:43;;;;;;;8.80;4.20;;;;;;;;;;4360946;32;20023;-75
2022/03/12 13:39:09;;;;;;;9.93;4.40;;;;;;;;;;4348253;32;20045;-75
2022/03/12 13:41:35;;;;;;;6.30;3.75;;;;;;;;;;4355363;33;20081;-75
2022/03/12 13:44:00;;;;;;;7.12;3.70;;;;;;;;;;4347376;33;20057;-75
2022/03/12 13:46:30;;;;;;;10.45;3.65;;;;;;;;;;4361815;32;20075;-75
2022/03/12 13:48:59;;;;;;;6.55;3.22;;;;;;;;;;4362047;32;20090;-75
2022/03/12 13:51:25;;;;;;;8.77;3.55;;;;;;;;;;4348927;33;20058;-76
2022/03/12 13:53:54;;;;;;;4.75;2.97;;;;;;;;;;4349368;32;20191;-74
2022/03/12 13:56:20;;;;;;;8.70;4.07;;;;;;;;;;4356634;32;20047;-76
2022/03/12 13:58:46;;;;;;;8.18;3.50;;;;;;;;;;4360270;33;20469;-74
2022/03/12 14:01:28;;;;;;;5.30;3.50;;;;;;;;;;4347956;32;20058;-76
2022/03/12 14:03:53;;;;;;;6.45;3.12;;;;;;;;;;4347664;33;20467;-76
2022/03/12 14:06:31;;;;;;;8.00;3.37;;;;;;;;;;4347665;33;20147;-74
2022/03/12 14:08:57;;;;;;;8.70;3.25;;;;;;;;;;4337547;33;20039;-74
2022/03/12 14:11:34;;;;;;;4.97;2.60;;;;;;;;;;4364480;32;20067;-75
2022/03/12 14:14:00;;;;;;;6.20;2.85;;;;;;;;;;4360935;32;20092;-76
2022/03/12 14:16:27;;;;;;;10.38;4.40;;;;;;;;;;4361962;32;20475;-74
2022/03/12 14:19:03;;;;;;;8.32;4.22;;;;;;;;;;4355672;32;20081;-73
2022/03/12 14:21:36;;;;;;;9.90;3.70;;;;;;;;;;4362288;32;20062;-75
2022/03/12 14:24:18;;;;;;;10.60;3.60;;;;;;;;;;4372243;32;20032;-75
2022/03/12 14:26:43;;;;;;;10.55;3.70;;;;;;;;;;4360729;32;20082;-75
2022/03/12 14:29:09;;;;;;;6.40;3.20;;;;;;;;;;4357740;33;20445;-76
2022/03/12 14:31:37;;;;;;;7.57;3.30;;;;;;;;;;4347642;33;20224;-76
2022/03/12 14:34:02;;;;;;;7.35;3.40;;;;;;;;;;4363113;32;20443;-75
2022/03/12 14:36:27;;;;;;;5.07;2.95;;;;;;;;;;4360843;32;20027;-75
2022/03/12 14:38:53;;;;;;;6.10;3.30;;;;;;;;;;4360044;32;20173;-76
2022/03/12 14:41:18;;;;;;;10.30;3.60;;;;;;;;;;4359602;33;20429;-75
2022/03/12 14:43:44;;;;;;;6.65;3.47;;;;;;;;;;4359653;32;20035;-74
2022/03/12 14:46:09;;;;;;;9.30;3.70;;;;;;;;;;4361212;32;20136;-75
2022/03/12 14:48:34;;;;;;;17.90;4.70;;;;;;;;;;4359668;33;20027;-75
2022/03/12 14:51:00;;;;;;;7.97;3.65;;;;;;;;;;4359229;33;20065;-76
2022/03/12 14:53:26;;;;;;;;;;;;;;;;;;4359545;32;20181;-75
2022/03/12 14:55:51;;;;;;;9.45;4.07;;;;;;;;;;4359002;32;20484;-75
2022/03/12 14:58:17;;;;;;;6.57;3.78;;;;;;;;;;4359884;32;20054;-75
2022/03/12 15:00:43;;;;;;;;;;;;;;;;;;4351564;32;20051;-75
2022/03/12 15:03:10;;;;;;;7.90;4.12;;;;;;;;;;4359230;32;19977;-76
2022/03/12 15:05:37;;;;;;;9.00;4.15;;;;;;;;;;4358775;33;20063;-75